createdAt,value
2017-06-14T00:00:39.412Z,17.6
2017-06-14T00:01:38.605Z,17.6
2017-06-14T00:02:37.834Z,17.6
2017-06-14T00:03:37.062Z,17.6
2017-06-14T00:04:36.290Z,17.6
2017-06-14T00:05:35.403Z,17.5
2017-06-14T00:06:35.026Z,17.5
2017-06-14T00:07:34.258Z,17.5
2017-06-14T00:08:33.260Z,17.5
2017-06-14T00:09:32.527Z,17.5
2017-06-14T00:10:32.264Z,17.5
2017-06-14T00:11:31.386Z,17.5
2017-06-14T00:12:31.780Z,17.5
2017-06-14T00:13:29.770Z,17.5
2017-06-14T00:14:28.775Z,17.5
2017-06-14T00:16:27.404Z,17.3
2017-06-14T00:17:26.634Z,17.3
2017-06-14T00:18:26.364Z,17.4
2017-06-14T00:20:24.375Z,17.4
2017-06-14T00:21:24.116Z,17.4
2017-06-14T00:22:23.347Z,17.4
2017-06-14T00:23:22.584Z,17.4
2017-06-14T00:24:22.347Z,17.3
2017-06-14T00:25:20.958Z,17.3
2017-06-14T00:26:20.079Z,17.3
2017-06-14T00:27:19.585Z,17.3
2017-06-14T00:28:18.700Z,17.3
2017-06-14T00:29:17.926Z,17.3
2017-06-14T00:30:17.161Z,17.3
2017-06-14T00:31:16.271Z,17.3
2017-06-14T00:32:16.010Z,17.3
2017-06-14T00:33:15.264Z,17.3
2017-06-14T00:34:14.498Z,17.3
2017-06-14T00:35:13.736Z,17.3
2017-06-14T00:36:12.971Z,17.3
2017-06-14T00:36:43.401Z,17.3
2017-06-14T00:38:11.894Z,17.2
2017-06-14T00:39:10.622Z,17.2
2017-06-14T00:40:09.855Z,17.2
2017-06-14T00:41:09.665Z,17.2
2017-06-14T00:42:08.404Z,17.3
2017-06-14T00:43:07.524Z,17.2
2017-06-14T00:44:06.634Z,17.2
2017-06-14T00:46:05.525Z,17.2
2017-06-14T00:47:04.525Z,17.2
2017-06-14T00:48:03.718Z,17.2
2017-06-14T00:49:03.528Z,17.2
2017-06-14T00:50:02.022Z,17.1
2017-06-14T00:51:01.554Z,17.1
2017-06-14T00:52:00.673Z,17.2
2017-06-14T00:52:59.907Z,17.2
2017-06-14T00:53:59.137Z,17.1
2017-06-14T00:54:29.565Z,17.1
2017-06-14T00:55:01.269Z,17.1
2017-06-14T00:55:30.313Z,17.1
2017-06-14T00:56:00.851Z,17.1
2017-06-14T00:56:57.057Z,17.1
2017-06-14T00:57:56.174Z,17.1
2017-06-14T00:58:55.670Z,17.1
2017-06-14T00:59:54.782Z,17.1
2017-06-14T01:00:53.900Z,17
2017-06-14T01:01:53.400Z,17
2017-06-14T01:02:52.633Z,17
2017-06-14T01:04:50.821Z,17
2017-06-14T01:05:50.060Z,17
2017-06-14T01:06:49.194Z,17.1
2017-06-14T01:08:47.812Z,17
2017-06-14T01:09:47.045Z,17
2017-06-14T01:10:46.665Z,17
2017-06-14T01:11:45.896Z,17
2017-06-14T01:12:45.128Z,17
2017-06-14T01:13:44.241Z,17
2017-06-14T01:14:43.353Z,17
2017-06-14T01:15:42.585Z,17
2017-06-14T01:16:41.821Z,17
2017-06-14T01:18:40.320Z,17
2017-06-14T01:19:39.434Z,17
2017-06-14T01:20:38.660Z,17
2017-06-14T01:21:37.771Z,17
2017-06-14T01:22:37.510Z,16.9
2017-06-14T01:23:36.744Z,16.9
2017-06-14T01:24:35.982Z,16.9
2017-06-14T01:25:35.098Z,16.8
2017-06-14T01:26:34.215Z,16.8
2017-06-14T01:27:33.450Z,16.7
2017-06-14T01:28:33.272Z,16.8
2017-06-14T01:29:32.011Z,16.8
2017-06-14T01:30:31.239Z,16.8
2017-06-14T01:31:30.471Z,16.8
2017-06-14T01:32:29.701Z,16.7
2017-06-14T01:33:28.820Z,16.7
2017-06-14T01:34:28.057Z,16.7
2017-06-14T01:35:27.292Z,16.7
2017-06-14T01:36:26.409Z,16.8
2017-06-14T01:37:26.144Z,16.8
2017-06-14T01:38:25.376Z,16.8
2017-06-14T01:39:24.607Z,16.8
2017-06-14T01:40:23.838Z,16.7
2017-06-14T01:41:23.074Z,16.7
2017-06-14T01:43:21.193Z,16.7
2017-06-14T01:44:20.432Z,16.7
2017-06-14T01:45:20.050Z,16.6
2017-06-14T01:46:19.283Z,16.6
2017-06-14T01:47:18.285Z,16.6
2017-06-14T01:49:16.903Z,16.6
2017-06-14T01:50:16.137Z,16.6
2017-06-14T01:51:15.248Z,16.5
2017-06-14T01:52:14.369Z,16.6
2017-06-14T01:53:13.984Z,16.6
2017-06-14T01:54:13.149Z,16.5
2017-06-14T01:55:12.262Z,16.6
2017-06-14T01:56:11.499Z,16.6
2017-06-14T01:57:10.731Z,16.6
2017-06-14T01:58:09.959Z,16.5
2017-06-14T01:59:09.194Z,16.5
2017-06-14T02:00:08.430Z,16.6
2017-06-14T02:01:07.552Z,16.6
2017-06-14T02:02:06.666Z,16.5
2017-06-14T02:03:05.902Z,16.6
2017-06-14T02:04:05.137Z,16.6
2017-06-14T02:05:04.138Z,16.5
2017-06-14T02:06:03.886Z,16.5
2017-06-14T02:07:03.119Z,16.5
2017-06-14T02:08:02.238Z,16.5
2017-06-14T02:09:01.469Z,16.5
2017-06-14T02:10:00.707Z,16.5
2017-06-14T02:10:59.818Z,16.5
2017-06-14T02:11:59.058Z,16.5
2017-06-14T02:12:58.366Z,16.5
2017-06-14T02:13:57.486Z,16.5
2017-06-14T02:14:56.717Z,16.4
2017-06-14T02:15:55.945Z,16.4
2017-06-14T02:16:55.173Z,16.4
2017-06-14T02:17:54.792Z,16.4
2017-06-14T02:18:54.451Z,16.4
2017-06-14T02:19:53.180Z,16.4
2017-06-14T02:20:52.411Z,16.4
2017-06-14T02:21:51.640Z,16.4
2017-06-14T02:22:50.636Z,16.4
2017-06-14T02:23:49.750Z,16.4
2017-06-14T02:24:50.080Z,16.4
2017-06-14T02:25:48.306Z,16.3
2017-06-14T02:26:48.043Z,16.3
2017-06-14T02:27:47.283Z,16.3
2017-06-14T02:28:46.396Z,16.3
2017-06-14T02:29:45.636Z,16.3
2017-06-14T02:30:45.212Z,16.3
2017-06-14T02:31:43.834Z,16.3
2017-06-14T02:32:43.074Z,16.3
2017-06-14T02:33:42.602Z,16.3
2017-06-14T02:34:41.724Z,16.3
2017-06-14T02:35:40.967Z,16.3
2017-06-14T02:36:39.963Z,16.3
2017-06-14T02:37:39.202Z,16.3
2017-06-14T02:38:38.438Z,16.3
2017-06-14T02:39:37.675Z,16.3
2017-06-14T02:40:36.789Z,16.3
2017-06-14T02:41:36.530Z,16.3
2017-06-14T02:42:35.766Z,16.3
2017-06-14T02:43:34.994Z,16.2
2017-06-14T02:44:34.225Z,16.2
2017-06-14T02:45:34.034Z,16.2
2017-06-14T02:46:32.270Z,16.2
2017-06-14T02:47:31.490Z,16.2
2017-06-14T02:49:30.108Z,16.2
2017-06-14T02:50:29.337Z,16.1
2017-06-14T02:51:28.561Z,16.1
2017-06-14T02:52:27.779Z,16.1
2017-06-14T02:53:27.004Z,16.1
2017-06-14T02:54:26.107Z,16
2017-06-14T02:55:25.336Z,16
2017-06-14T02:56:24.561Z,16
2017-06-14T02:57:23.789Z,16
2017-06-14T02:58:23.011Z,16
2017-06-14T02:59:22.265Z,16
2017-06-14T03:00:21.486Z,16
2017-06-14T03:01:20.589Z,15.9
2017-06-14T03:02:20.080Z,15.8
2017-06-14T03:03:19.375Z,15.8
2017-06-14T03:04:18.474Z,15.8
2017-06-14T03:05:17.689Z,15.8
2017-06-14T03:06:16.915Z,15.8
2017-06-14T03:07:16.128Z,15.8
2017-06-14T03:08:15.737Z,15.8
2017-06-14T03:09:15.534Z,15.9
2017-06-14T03:10:13.752Z,15.9
2017-06-14T03:11:12.992Z,15.9
2017-06-14T03:12:12.208Z,15.8
2017-06-14T03:13:11.421Z,15.8
2017-06-14T03:14:10.672Z,15.8
2017-06-14T03:15:09.899Z,15.8
2017-06-14T03:16:09.002Z,15.9
2017-06-14T03:17:08.728Z,15.9
2017-06-14T03:18:07.944Z,15.9
2017-06-14T03:19:07.166Z,15.9
2017-06-14T03:20:06.842Z,15.9
2017-06-14T03:21:05.559Z,15.8
2017-06-14T03:22:04.550Z,15.8
2017-06-14T03:23:03.770Z,15.8
2017-06-14T03:24:03.563Z,15.8
2017-06-14T03:25:02.164Z,15.8
2017-06-14T03:26:01.394Z,15.8
2017-06-14T03:27:00.672Z,15.8
2017-06-14T03:27:59.945Z,15.8
2017-06-14T03:28:59.162Z,15.8
2017-06-14T03:29:58.384Z,15.8
2017-06-14T03:30:57.608Z,15.8
2017-06-14T03:31:57.387Z,15.8
2017-06-14T03:32:56.103Z,15.8
2017-06-14T03:33:55.326Z,15.8
2017-06-14T03:34:25.616Z,15.8
2017-06-14T03:34:56.417Z,15.8
2017-06-14T03:35:53.624Z,15.8
2017-06-14T03:36:52.846Z,15.8
2017-06-14T03:37:52.066Z,15.8
2017-06-14T03:38:51.595Z,15.8
2017-06-14T03:39:50.707Z,15.8
2017-06-14T03:40:49.927Z,15.7
2017-06-14T03:41:49.041Z,15.7
2017-06-14T03:42:48.834Z,15.7
2017-06-14T03:43:47.433Z,15.7
2017-06-14T03:44:46.653Z,15.6
2017-06-14T03:45:45.873Z,15.6
2017-06-14T03:46:45.097Z,15.7
2017-06-14T03:47:44.321Z,15.7
2017-06-14T03:48:43.189Z,15.7
2017-06-14T03:49:42.911Z,15.7
2017-06-14T03:50:42.077Z,15.7
2017-06-14T03:51:41.296Z,15.7
2017-06-14T03:52:40.521Z,15.8
2017-06-14T03:53:39.625Z,15.8
2017-06-14T03:54:38.640Z,15.8
2017-06-14T03:55:37.866Z,15.8
2017-06-14T03:56:37.032Z,15.8
2017-06-14T03:57:36.253Z,15.8
2017-06-14T03:58:35.476Z,15.8
2017-06-14T03:59:34.692Z,15.8
2017-06-14T04:00:33.914Z,15.9
2017-06-14T04:01:33.131Z,15.9
2017-06-14T04:02:32.356Z,16
2017-06-14T04:03:31.575Z,16
2017-06-14T04:04:30.794Z,16
2017-06-14T04:05:30.021Z,16
2017-06-14T04:06:29.248Z,16
2017-06-14T04:07:28.474Z,16
2017-06-14T04:08:27.461Z,16
2017-06-14T04:09:27.186Z,16
2017-06-14T04:10:26.403Z,16
2017-06-14T04:12:24.518Z,15.9
2017-06-14T04:13:23.737Z,15.9
2017-06-14T04:15:22.233Z,15.9
2017-06-14T04:16:21.458Z,15.9
2017-06-14T04:17:20.685Z,15.9
2017-06-14T04:18:19.917Z,15.9
2017-06-14T04:19:19.140Z,15.9
2017-06-14T04:20:18.365Z,15.9
2017-06-14T04:21:17.593Z,15.9
2017-06-14T04:22:16.811Z,15.9
2017-06-14T04:23:16.035Z,15.9
2017-06-14T04:24:15.255Z,15.9
2017-06-14T04:25:15.053Z,15.9
2017-06-14T04:26:13.770Z,15.9
2017-06-14T04:27:13.002Z,16
2017-06-14T04:28:12.801Z,16
2017-06-14T04:29:11.518Z,16
2017-06-14T04:30:10.624Z,16
2017-06-14T04:31:09.849Z,16
2017-06-14T04:32:09.070Z,16.1
2017-06-14T04:33:08.176Z,16.2
2017-06-14T04:34:07.282Z,16.2
2017-06-14T04:35:06.588Z,16.2
2017-06-14T04:36:05.684Z,16.3
2017-06-14T04:37:05.303Z,16.3
2017-06-14T04:38:04.527Z,16.3
2017-06-14T04:39:03.747Z,16.4
2017-06-14T04:40:02.851Z,16.5
2017-06-14T04:41:02.071Z,16.5
2017-06-14T04:42:01.172Z,16.5
2017-06-14T04:43:00.332Z,16.6
2017-06-14T04:44:00.059Z,16.6
2017-06-14T04:44:58.769Z,16.6
2017-06-14T04:45:57.815Z,16.6
2017-06-14T04:47:56.896Z,16.6
2017-06-14T04:48:56.177Z,16.6
2017-06-14T04:49:54.659Z,16.6
2017-06-14T04:50:54.258Z,16.7
2017-06-14T04:51:53.130Z,16.7
2017-06-14T04:52:52.851Z,16.7
2017-06-14T04:53:51.832Z,16.7
2017-06-14T04:54:50.815Z,16.7
2017-06-14T04:55:50.537Z,16.8
2017-06-14T04:56:49.643Z,16.8
2017-06-14T04:57:48.858Z,16.8
2017-06-14T04:58:48.652Z,16.8
2017-06-14T04:59:47.383Z,16.8
2017-06-14T05:00:46.608Z,16.9
2017-06-14T05:01:45.825Z,16.9
2017-06-14T05:02:44.931Z,16.8
2017-06-14T05:03:43.916Z,16.8
2017-06-14T05:04:43.526Z,16.9
2017-06-14T05:05:42.630Z,16.9
2017-06-14T05:06:41.858Z,17
2017-06-14T05:07:40.957Z,17
2017-06-14T05:08:40.178Z,17
2017-06-14T05:09:39.400Z,17
2017-06-14T05:10:38.619Z,17.1
2017-06-14T05:11:37.838Z,17.1
2017-06-14T05:12:37.053Z,17.1
2017-06-14T05:13:36.271Z,17.2
2017-06-14T05:14:35.490Z,17.2
2017-06-14T05:16:34.410Z,17.2
2017-06-14T05:17:33.129Z,17.3
2017-06-14T05:18:32.347Z,17.3
2017-06-14T05:19:31.573Z,17.3
2017-06-14T05:20:30.791Z,17.3
2017-06-14T05:21:30.391Z,17.3
2017-06-14T05:22:29.616Z,17.3
2017-06-14T05:23:28.832Z,17.3
2017-06-14T05:24:28.054Z,17.3
2017-06-14T05:25:27.042Z,17.3
2017-06-14T05:26:26.143Z,17.3
2017-06-14T05:27:25.631Z,17.3
2017-06-14T05:28:24.853Z,17.3
2017-06-14T05:29:24.072Z,17.3
2017-06-14T05:30:23.293Z,17.4
2017-06-14T05:31:22.399Z,17.4
2017-06-14T05:32:21.622Z,17.4
2017-06-14T05:33:21.451Z,17.5
2017-06-14T05:34:20.049Z,17.5
2017-06-14T05:35:19.342Z,17.5
2017-06-14T05:36:18.449Z,17.5
2017-06-14T05:37:18.172Z,17.5
2017-06-14T05:38:17.389Z,17.5
2017-06-14T05:39:16.492Z,17.5
2017-06-14T05:40:15.716Z,17.5
2017-06-14T05:41:15.500Z,17.5
2017-06-14T05:42:14.144Z,17.6
2017-06-14T05:43:13.374Z,17.6
2017-06-14T05:44:12.591Z,17.6
2017-06-14T05:45:11.811Z,17.6
2017-06-14T05:46:11.093Z,17.6
2017-06-14T05:47:10.788Z,17.6
2017-06-14T05:48:09.261Z,17.7
2017-06-14T05:49:08.987Z,17.7
2017-06-14T05:50:08.093Z,17.7
2017-06-14T05:51:07.316Z,17.8
2017-06-14T05:52:06.420Z,17.8
2017-06-14T05:53:05.703Z,17.8
2017-06-14T05:54:04.752Z,17.8
2017-06-14T05:55:05.618Z,17.8
2017-06-14T05:56:03.323Z,17.8
2017-06-14T05:57:02.546Z,17.9
2017-06-14T05:58:01.772Z,17.9
2017-06-14T05:59:01.836Z,17.9
2017-06-14T06:00:00.514Z,17.9
2017-06-14T06:00:59.739Z,17.9
2017-06-14T06:01:58.844Z,18
2017-06-14T06:02:58.062Z,18
2017-06-14T06:03:57.674Z,18
2017-06-14T06:04:56.773Z,18
2017-06-14T06:05:55.870Z,18.1
2017-06-14T06:07:54.478Z,18.1
2017-06-14T06:08:53.771Z,18.1
2017-06-14T06:09:52.989Z,18.1
2017-06-14T06:10:52.158Z,18.1
2017-06-14T06:11:51.381Z,18.1
2017-06-14T06:12:50.599Z,18.1
2017-06-14T06:13:49.818Z,18.1
2017-06-14T06:14:49.602Z,18.1
2017-06-14T06:15:48.328Z,18.1
2017-06-14T06:16:47.435Z,18.1
2017-06-14T06:17:47.157Z,18.1
2017-06-14T06:18:46.826Z,18.2
2017-06-14T06:19:45.548Z,18.3
2017-06-14T06:20:44.767Z,18.3
2017-06-14T06:21:43.985Z,18.3
2017-06-14T06:22:43.209Z,18.3
2017-06-14T06:23:42.310Z,18.3
2017-06-14T06:24:42.046Z,18.3
2017-06-14T06:25:41.043Z,18.3
2017-06-14T06:26:40.142Z,18.3
2017-06-14T06:27:39.750Z,18.4
2017-06-14T06:28:38.972Z,18.4
2017-06-14T06:29:38.194Z,18.4
2017-06-14T06:30:09.292Z,18.4
2017-06-14T06:30:39.320Z,18.3
2017-06-14T06:31:10.281Z,18.3
2017-06-14T06:32:35.683Z,18.4
2017-06-14T06:33:34.934Z,18.3
2017-06-14T06:34:34.147Z,18.3
2017-06-14T06:35:34.447Z,18.4
2017-06-14T06:36:33.162Z,18.5
2017-06-14T06:37:32.384Z,18.5
2017-06-14T06:38:32.052Z,18.5
2017-06-14T06:39:31.336Z,18.5
2017-06-14T06:40:30.057Z,18.5
2017-06-14T06:41:29.858Z,18.6
2017-06-14T06:42:28.574Z,18.6
2017-06-14T06:43:27.795Z,18.6
2017-06-14T06:44:27.013Z,18.7
2017-06-14T06:45:26.229Z,18.8
2017-06-14T06:46:25.453Z,18.8
2017-06-14T06:47:24.677Z,18.8
2017-06-14T06:48:23.902Z,18.8
2017-06-14T06:49:23.009Z,18.8
2017-06-14T06:50:22.506Z,18.8
2017-06-14T06:51:21.731Z,18.8
2017-06-14T06:52:20.952Z,18.8
2017-06-14T06:53:20.676Z,18.9
2017-06-14T06:54:19.789Z,19
2017-06-14T06:55:19.019Z,19
2017-06-14T06:56:18.126Z,19
2017-06-14T06:57:17.347Z,19.1
2017-06-14T06:58:16.457Z,19.1
2017-06-14T06:59:16.190Z,19.1
2017-06-14T07:00:15.463Z,19.1
2017-06-14T07:01:14.736Z,19.1
2017-06-14T07:02:13.836Z,19.1
2017-06-14T07:03:13.057Z,19.1
2017-06-14T07:04:12.841Z,19.1
2017-06-14T07:05:11.441Z,19.1
2017-06-14T07:06:11.170Z,19
2017-06-14T07:07:10.397Z,19
2017-06-14T07:09:08.953Z,19.1
2017-06-14T07:10:08.058Z,19.1
2017-06-14T07:11:07.283Z,19
2017-06-14T07:12:06.820Z,19
2017-06-14T07:13:05.928Z,19
2017-06-14T07:14:04.976Z,19
2017-06-14T07:15:04.705Z,19.1
2017-06-14T07:16:03.809Z,19.1
2017-06-14T07:17:03.094Z,19.2
2017-06-14T07:18:02.351Z,19.2
2017-06-14T07:19:01.581Z,19.3
2017-06-14T07:20:00.799Z,19.3
2017-06-14T07:20:59.907Z,19.3
2017-06-14T07:22:58.518Z,19.3
2017-06-14T07:23:58.240Z,19.3
2017-06-14T07:24:57.345Z,19.3
2017-06-14T07:25:56.479Z,19.3
2017-06-14T07:26:56.088Z,19.4
2017-06-14T07:27:55.206Z,19.5
2017-06-14T07:28:54.387Z,19.5
2017-06-14T07:29:53.605Z,19.5
2017-06-14T07:30:52.596Z,19.5
2017-06-14T07:31:52.202Z,19.5
2017-06-14T07:32:51.426Z,19.6
2017-06-14T07:33:50.645Z,19.6
2017-06-14T07:34:50.011Z,19.6
2017-06-14T07:35:49.238Z,19.7
2017-06-14T07:36:48.466Z,19.7
2017-06-14T07:37:48.185Z,19.8
2017-06-14T07:38:47.287Z,19.8
2017-06-14T07:39:47.086Z,19.9
2017-06-14T07:40:45.800Z,19.9
2017-06-14T07:41:16.216Z,19.9
2017-06-14T07:41:46.635Z,19.9
2017-06-14T07:42:44.347Z,19.9
2017-06-14T07:43:43.565Z,19.9
2017-06-14T07:44:42.795Z,19.9
2017-06-14T07:45:42.514Z,20
2017-06-14T07:46:41.617Z,20
2017-06-14T07:48:40.112Z,20
2017-06-14T07:49:39.334Z,20
2017-06-14T07:50:38.555Z,20
2017-06-14T07:51:38.285Z,20
2017-06-14T07:52:37.508Z,20
2017-06-14T07:53:36.732Z,20
2017-06-14T07:54:36.520Z,19.9
2017-06-14T07:55:35.238Z,20
2017-06-14T07:56:34.336Z,20
2017-06-14T07:57:34.061Z,20
2017-06-14T07:58:33.170Z,20
2017-06-14T07:59:32.390Z,20
2017-06-14T08:00:32.110Z,20
2017-06-14T08:01:30.828Z,20
2017-06-14T08:02:30.548Z,20
2017-06-14T08:03:29.534Z,20
2017-06-14T08:04:29.722Z,20
2017-06-14T08:05:28.432Z,20.1
2017-06-14T08:06:27.660Z,20.1
2017-06-14T08:07:26.886Z,20.1
2017-06-14T08:08:26.111Z,20.1
2017-06-14T08:09:25.328Z,20.1
2017-06-14T08:10:24.431Z,20.2
2017-06-14T08:11:24.045Z,20.2
2017-06-14T08:12:23.271Z,20.3
2017-06-14T08:13:22.378Z,20.3
2017-06-14T08:14:22.107Z,20.3
2017-06-14T08:15:21.326Z,20.3
2017-06-14T08:16:20.551Z,20.3
2017-06-14T08:17:19.780Z,20.3
2017-06-14T08:18:19.003Z,20.3
2017-06-14T08:19:18.809Z,20.3
2017-06-14T08:20:17.525Z,20.4
2017-06-14T08:21:17.138Z,20.3
2017-06-14T08:22:16.244Z,20.3
2017-06-14T08:23:15.466Z,20.5
2017-06-14T08:24:15.202Z,20.5
2017-06-14T08:25:14.435Z,20.5
2017-06-14T08:26:13.750Z,20.6
2017-06-14T08:27:12.993Z,20.5
2017-06-14T08:28:12.098Z,20.5
2017-06-14T08:29:11.315Z,20.5
2017-06-14T08:30:10.814Z,20.5
2017-06-14T08:31:09.806Z,20.5
2017-06-14T08:32:09.532Z,20.5
2017-06-14T08:33:08.636Z,20.5
2017-06-14T08:34:07.858Z,20.5
2017-06-14T08:35:07.618Z,20.5
2017-06-14T08:36:06.606Z,20.5
2017-06-14T08:37:05.824Z,20.5
2017-06-14T08:38:04.926Z,20.5
2017-06-14T08:39:04.649Z,20.6
2017-06-14T08:40:03.640Z,20.6
2017-06-14T08:41:03.372Z,20.6
2017-06-14T08:42:02.597Z,20.6
2017-06-14T08:43:01.815Z,20.8
2017-06-14T08:44:00.795Z,20.8
2017-06-14T08:45:00.518Z,20.8
2017-06-14T08:46:00.068Z,20.8
2017-06-14T08:46:30.708Z,20.8
2017-06-14T08:47:00.623Z,20.9
2017-06-14T08:47:31.034Z,20.9
2017-06-14T08:48:02.019Z,20.9
2017-06-14T08:48:32.513Z,20.9
2017-06-14T08:49:02.540Z,20.8
2017-06-14T08:49:32.836Z,20.8
2017-06-14T08:50:03.132Z,20.9
2017-06-14T08:50:56.765Z,20.9
2017-06-14T08:51:55.428Z,20.9
2017-06-14T08:52:55.158Z,21
2017-06-14T08:53:54.263Z,21
2017-06-14T08:54:53.362Z,21
2017-06-14T08:55:53.090Z,21
2017-06-14T08:56:52.195Z,21
2017-06-14T08:57:51.306Z,21
2017-06-14T08:58:50.795Z,21
2017-06-14T08:59:49.895Z,21
2017-06-14T09:00:49.510Z,21
2017-06-14T09:01:48.735Z,21
2017-06-14T09:02:48.459Z,21.1
2017-06-14T09:03:47.677Z,21.1
2017-06-14T09:04:46.666Z,21.1
2017-06-14T09:05:46.956Z,21.1
2017-06-14T09:06:45.675Z,21.1
2017-06-14T09:07:44.783Z,21.1
2017-06-14T09:08:43.948Z,21.1
2017-06-14T09:09:43.681Z,21.1
2017-06-14T09:10:42.906Z,21.1
2017-06-14T09:11:42.127Z,21.1
2017-06-14T09:12:41.343Z,21.1
2017-06-14T09:13:40.951Z,21.1
2017-06-14T09:15:39.561Z,21.2
2017-06-14T09:16:39.294Z,21.3
2017-06-14T09:17:38.011Z,21.3
2017-06-14T09:18:37.232Z,21.4
2017-06-14T09:19:36.840Z,21.5
2017-06-14T09:20:35.823Z,21.5
2017-06-14T09:21:35.432Z,21.5
2017-06-14T09:22:34.658Z,21.5
2017-06-14T09:23:33.883Z,21.4
2017-06-14T09:24:33.607Z,21.3
2017-06-14T09:25:32.829Z,21.3
2017-06-14T09:26:32.056Z,21.3
2017-06-14T09:27:31.288Z,21.2
2017-06-14T09:28:30.518Z,21.1
2017-06-14T09:29:30.258Z,21.2
2017-06-14T09:30:29.483Z,21.1
2017-06-14T09:31:28.585Z,21.1
2017-06-14T09:32:28.315Z,21.1
2017-06-14T09:33:27.546Z,21.1
2017-06-14T09:34:26.769Z,21.1
2017-06-14T09:35:25.992Z,21.2
2017-06-14T09:36:24.978Z,21.3
2017-06-14T09:37:24.585Z,21.3
2017-06-14T09:38:24.190Z,21.3
2017-06-14T09:39:23.408Z,21.4
2017-06-14T09:40:22.279Z,21.4
2017-06-14T09:41:21.778Z,21.5
2017-06-14T09:43:20.892Z,21.4
2017-06-14T09:44:20.119Z,21.5
2017-06-14T09:45:19.346Z,21.5
2017-06-14T09:46:19.075Z,21.5
2017-06-14T09:47:18.384Z,21.5
2017-06-14T09:48:17.605Z,21.5
2017-06-14T09:49:17.403Z,21.5
2017-06-14T09:50:16.121Z,21.6
2017-06-14T09:51:15.345Z,21.6
2017-06-14T09:52:15.070Z,21.6
2017-06-14T09:53:14.180Z,21.6
2017-06-14T09:54:13.398Z,21.6
2017-06-14T09:55:13.007Z,21.6
2017-06-14T09:56:12.232Z,21.7
2017-06-14T09:57:11.334Z,21.8
2017-06-14T09:58:10.699Z,21.8
2017-06-14T09:59:10.984Z,21.8
2017-06-14T10:00:09.587Z,21.8
2017-06-14T10:01:08.812Z,21.8
2017-06-14T10:02:08.300Z,21.8
2017-06-14T10:03:08.367Z,21.8
2017-06-14T10:04:06.841Z,21.9
2017-06-14T10:05:06.562Z,21.9
2017-06-14T10:06:05.586Z,21.9
2017-06-14T10:07:05.307Z,21.9
2017-06-14T10:08:05.091Z,21.9
2017-06-14T10:09:03.691Z,22
2017-06-14T10:10:03.419Z,22
2017-06-14T10:11:02.643Z,22
2017-06-14T10:12:01.870Z,22
2017-06-14T10:14:00.357Z,21.9
2017-06-14T10:15:00.081Z,21.9
2017-06-14T10:15:59.300Z,21.9
2017-06-14T10:16:58.519Z,21.9
2017-06-14T10:17:58.250Z,21.9
2017-06-14T10:18:57.485Z,22
2017-06-14T10:19:56.595Z,22
2017-06-14T10:20:56.767Z,22
2017-06-14T10:21:55.478Z,22
2017-06-14T10:22:54.705Z,22
2017-06-14T10:23:54.432Z,21.9
2017-06-14T10:24:53.650Z,21.9
2017-06-14T10:25:52.748Z,21.8
2017-06-14T10:26:53.054Z,21.8
2017-06-14T10:27:51.775Z,21.8
2017-06-14T10:28:51.459Z,21.8
2017-06-14T10:29:50.191Z,21.8
2017-06-14T10:30:49.922Z,21.8
2017-06-14T10:31:49.148Z,21.8
2017-06-14T10:32:48.248Z,21.8
2017-06-14T10:33:47.734Z,21.8
2017-06-14T10:34:47.345Z,21.8
2017-06-14T10:35:46.452Z,21.8
2017-06-14T10:36:46.051Z,21.8
2017-06-14T10:37:45.167Z,21.8
2017-06-14T10:38:44.276Z,21.8
2017-06-14T10:40:43.397Z,21.8
2017-06-14T10:41:43.201Z,21.8
2017-06-14T10:42:41.917Z,21.8
2017-06-14T10:43:41.641Z,21.8
2017-06-14T10:44:40.858Z,21.8
2017-06-14T10:45:39.958Z,21.8
2017-06-14T10:46:39.683Z,21.8
2017-06-14T10:47:38.901Z,21.8
2017-06-14T10:48:38.512Z,21.8
2017-06-14T10:49:37.607Z,21.8
2017-06-14T10:50:37.213Z,21.8
2017-06-14T10:51:36.319Z,21.8
2017-06-14T10:52:35.916Z,21.8
2017-06-14T10:53:35.136Z,21.8
2017-06-14T10:54:34.356Z,21.8
2017-06-14T10:55:35.218Z,21.8
2017-06-14T10:56:33.323Z,21.8
2017-06-14T10:57:33.126Z,21.8
2017-06-14T10:58:32.343Z,21.8
2017-06-14T10:59:31.565Z,21.8
2017-06-14T11:00:30.789Z,21.8
2017-06-14T11:01:30.012Z,21.8
2017-06-14T11:02:29.737Z,21.8
2017-06-14T11:03:28.959Z,21.7
2017-06-14T11:04:28.182Z,21.8
2017-06-14T11:05:27.914Z,21.8
2017-06-14T11:06:27.137Z,21.8
2017-06-14T11:07:26.237Z,21.8
2017-06-14T11:08:25.967Z,21.8
2017-06-14T11:09:25.192Z,21.8
2017-06-14T11:10:24.384Z,21.8
2017-06-14T11:11:24.687Z,21.8
2017-06-14T11:12:23.168Z,21.8
2017-06-14T11:13:22.911Z,21.8
2017-06-14T11:14:22.125Z,21.8
2017-06-14T11:15:21.846Z,21.8
2017-06-14T11:16:20.949Z,21.7
2017-06-14T11:17:20.674Z,21.6
2017-06-14T11:18:19.659Z,21.6
2017-06-14T11:19:19.381Z,21.6
2017-06-14T11:20:18.256Z,21.6
2017-06-14T11:21:17.866Z,21.7
2017-06-14T11:22:17.586Z,21.7
2017-06-14T11:23:16.886Z,21.7
2017-06-14T11:24:16.111Z,21.8
2017-06-14T11:25:15.718Z,21.6
2017-06-14T11:26:14.954Z,21.6
2017-06-14T11:27:14.200Z,21.6
2017-06-14T11:28:13.927Z,21.6
2017-06-14T11:29:13.041Z,21.5
2017-06-14T11:30:12.644Z,21.5
2017-06-14T11:31:11.863Z,21.5
2017-06-14T11:32:11.227Z,21.5
2017-06-14T11:33:10.949Z,21.6
2017-06-14T11:35:09.561Z,21.6
2017-06-14T11:36:08.546Z,21.6
2017-06-14T11:37:08.270Z,21.6
2017-06-14T11:38:07.989Z,21.6
2017-06-14T11:39:07.207Z,21.6
2017-06-14T11:40:06.312Z,21.6
2017-06-14T11:41:06.037Z,21.6
2017-06-14T11:42:05.137Z,21.6
2017-06-14T11:43:05.134Z,21.6
2017-06-14T11:44:04.239Z,21.6
2017-06-14T11:45:03.733Z,21.6
2017-06-14T11:46:03.341Z,21.6
2017-06-14T11:47:02.325Z,21.6
2017-06-14T11:48:01.931Z,21.5
2017-06-14T11:50:00.805Z,21.5
2017-06-14T11:51:00.037Z,21.6
2017-06-14T11:52:00.756Z,21.6
2017-06-14T11:52:58.969Z,21.6
2017-06-14T11:53:58.569Z,21.6
2017-06-14T11:54:57.786Z,21.6
2017-06-14T11:55:28.314Z,21.6
2017-06-14T11:55:58.850Z,21.6
2017-06-14T11:56:56.555Z,21.6
2017-06-14T11:57:56.870Z,21.6
2017-06-14T11:58:55.597Z,21.6
2017-06-14T11:59:55.204Z,21.7
2017-06-14T12:00:54.429Z,21.7
2017-06-14T12:01:54.038Z,21.7
2017-06-14T12:02:53.832Z,21.7
2017-06-14T12:03:52.816Z,21.7
2017-06-14T12:04:52.044Z,21.8
2017-06-14T12:05:51.530Z,21.8
2017-06-14T12:06:51.139Z,21.8
2017-06-14T12:08:49.631Z,21.8
2017-06-14T12:09:49.923Z,21.8
2017-06-14T12:10:49.025Z,21.8
2017-06-14T12:11:48.189Z,21.8
2017-06-14T12:13:47.208Z,21.8
2017-06-14T12:14:46.188Z,21.8
2017-06-14T12:15:45.912Z,21.8
2017-06-14T12:16:45.671Z,21.8
2017-06-14T12:17:44.891Z,21.8
2017-06-14T12:18:44.117Z,21.8
2017-06-14T12:20:43.119Z,21.8
2017-06-14T12:21:42.737Z,21.8
2017-06-14T12:22:42.356Z,21.8
2017-06-14T12:23:41.460Z,21.8
2017-06-14T12:24:41.064Z,21.8
2017-06-14T12:25:40.165Z,21.8
2017-06-14T12:26:39.888Z,21.8
2017-06-14T12:27:39.109Z,21.8
2017-06-14T12:28:38.719Z,21.8
2017-06-14T12:29:38.438Z,21.8
2017-06-14T12:30:37.542Z,21.8
2017-06-14T12:31:37.265Z,21.8
2017-06-14T12:32:36.380Z,21.8
2017-06-14T12:33:36.112Z,21.8
2017-06-14T12:34:35.217Z,21.7
2017-06-14T12:35:34.936Z,21.7
2017-06-14T12:36:34.660Z,21.7
2017-06-14T12:37:33.878Z,21.7
2017-06-14T12:38:04.476Z,21.7
2017-06-14T12:38:35.064Z,21.7
2017-06-14T12:39:06.738Z,21.7
2017-06-14T12:39:36.149Z,21.7
2017-06-14T12:40:32.353Z,21.8
2017-06-14T12:41:31.610Z,21.8
2017-06-14T12:42:31.175Z,21.8
2017-06-14T12:43:30.669Z,21.8
2017-06-14T12:44:29.894Z,21.8
2017-06-14T12:45:29.504Z,21.8
2017-06-14T12:47:28.496Z,21.8
2017-06-14T12:48:28.106Z,21.8
2017-06-14T12:49:27.329Z,21.8
2017-06-14T12:50:26.818Z,21.8
2017-06-14T12:51:26.544Z,21.8
2017-06-14T12:52:25.644Z,21.8
2017-06-14T12:54:25.340Z,21.9
2017-06-14T12:55:24.438Z,21.9
2017-06-14T12:56:23.541Z,21.9
2017-06-14T12:57:23.266Z,21.9
2017-06-14T12:58:22.487Z,21.9
2017-06-14T12:59:22.086Z,21.9
2017-06-14T13:00:21.816Z,21.9
2017-06-14T13:01:21.034Z,21.9
2017-06-14T13:02:20.772Z,21.9
2017-06-14T13:03:20.005Z,22
2017-06-14T13:04:19.616Z,22
2017-06-14T13:05:19.403Z,22
2017-06-14T13:06:19.202Z,22
2017-06-14T13:07:17.921Z,22
2017-06-14T13:08:17.647Z,22
2017-06-14T13:09:16.867Z,22
2017-06-14T13:10:16.592Z,22
2017-06-14T13:11:15.832Z,22
2017-06-14T13:12:15.440Z,22
2017-06-14T13:13:14.676Z,22
2017-06-14T13:14:14.302Z,22
2017-06-14T13:15:14.496Z,22
2017-06-14T13:16:13.219Z,22
2017-06-14T13:17:12.948Z,22
2017-06-14T13:18:12.170Z,22
2017-06-14T13:19:11.895Z,22
2017-06-14T13:20:11.131Z,22
2017-06-14T13:21:10.859Z,22
2017-06-14T13:22:10.084Z,21.9
2017-06-14T13:23:09.817Z,21.9
2017-06-14T13:24:09.041Z,21.9
2017-06-14T13:25:08.772Z,21.9
2017-06-14T13:26:08.025Z,21.8
2017-06-14T13:27:07.630Z,21.9
2017-06-14T13:28:07.351Z,21.9
2017-06-14T13:29:06.282Z,21.9
2017-06-14T13:30:05.776Z,21.9
2017-06-14T13:31:05.503Z,21.9
2017-06-14T13:32:05.809Z,22
2017-06-14T13:33:04.412Z,22